Time;durP1;ratioP1;P1;durP2;ratioP2;P2;SDS_P1;SDS_P2;PMS_P1;PMS_P2;Temp;Humidity;BMP_temperature;BMP_pressure;BME280_temperature;BME280_humidity;BME280_pressure;Samples;Min_cycle;Max_cycle;Signal;HPM_P1;HPM_P2
2022/08/10 00:01:33;;;;;;;2.72;1.73;;;;;;;19.77;37.77;96317.06;5027826;28;20178;-82
2022/08/10 00:03:58;;;;;;;1.75;1.65;;;;;;;19.65;37.74;96323.81;5017786;28;20225;-82
2022/08/10 00:06:23;;;;;;;2.22;2.03;;;;;;;19.57;37.74;96318.66;5017580;28;20250;-82
2022/08/10 00:08:48;;;;;;;2.45;2.20;;;;;;;19.52;38.34;96314.75;5022766;28;20179;-82
2022/08/10 00:11:14;;;;;;;2.90;1.75;;;;;;;19.53;38.45;96319.00;5022355;28;20183;-82
2022/08/10 00:13:39;;;;;;;2.00;1.80;;;;;;;19.48;38.16;96312.66;5021850;28;20191;-82
2022/08/10 00:16:05;;;;;;;2.63;1.60;;;;;;;19.51;38.48;96307.00;5022974;28;20268;-82
2022/08/10 00:18:30;;;;;;;3.22;1.88;;;;;;;19.50;38.55;96306.19;5022277;28;20187;-82
2022/08/10 00:20:55;;;;;;;2.70;1.75;;;;;;;19.45;38.77;96305.13;5017308;28;20183;-82
2022/08/10 00:23:21;;;;;;;5.28;2.13;;;;;;;19.43;38.52;96304.47;5016975;28;20238;-82
2022/08/10 00:25:46;;;;;;;4.60;2.00;;;;;;;19.39;38.90;96308.47;5024462;28;20175;-82
2022/08/10 00:28:11;;;;;;;3.35;1.65;;;;;;;19.38;39.08;96294.50;5021193;28;20241;-82
2022/08/10 00:30:37;;;;;;;2.72;2.05;;;;;;;19.38;38.90;96305.03;5021022;28;20215;-82
2022/08/10 00:33:02;;;;;;;4.20;2.00;;;;;;;19.32;39.43;96303.13;5023384;28;20236;-82
2022/08/10 00:35:28;;;;;;;3.45;2.38;;;;;;;19.25;39.51;96299.59;5029625;28;20258;-82
2022/08/10 00:37:53;;;;;;;4.30;1.83;;;;;;;19.32;39.49;96299.69;5022014;28;20194;-82
2022/08/10 00:40:19;;;;;;;3.17;1.70;;;;;;;19.16;39.95;96304.13;5024261;28;20190;-82
2022/08/10 00:42:44;;;;;;;2.15;1.83;;;;;;;19.26;39.52;96293.34;5021773;28;20203;-84
2022/08/10 00:45:10;;;;;;;1.90;1.80;;;;;;;19.22;39.86;96292.88;5021746;28;20234;-82
2022/08/10 00:47:35;;;;;;;3.58;2.10;;;;;;;19.15;40.03;96291.97;5024316;28;20174;-82
2022/08/10 00:50:01;;;;;;;2.90;2.00;;;;;;;19.08;40.50;96301.63;5021601;28;20244;-83
2022/08/10 00:52:29;;;;;;;2.80;2.03;;;;;;;19.08;40.14;96300.78;5006022;28;20178;-83
2022/08/10 00:54:55;;;;;;;3.70;1.80;;;;;;;19.05;40.60;96296.69;5023357;28;20209;-82
2022/08/10 00:57:20;;;;;;;3.45;1.70;;;;;;;19.00;40.57;96298.25;5020331;28;20175;-82
2022/08/10 00:59:47;;;;;;;2.20;1.60;;;;;;;18.93;40.50;96291.09;5023693;28;20273;-82
2022/08/10 01:02:12;;;;;;;1.92;1.73;;;;;;;18.88;40.88;96297.88;5022480;28;20183;-83
2022/08/10 01:04:38;;;;;;;2.78;2.08;;;;;;;18.91;40.59;96295.72;5019724;28;20215;-82
2022/08/10 01:07:29;;;;;;;2.53;1.90;;;;;;;18.99;40.88;96301.88;5032688;28;20197;-84
2022/08/10 01:10:19;;;;;;;4.32;1.80;;;;;;;18.96;40.90;96297.78;5059414;28;20167;-84
2022/08/10 01:12:53;;;;;;;2.80;1.92;;;;;;;18.87;41.28;96294.44;5044498;28;20190;-83
2022/08/10 01:15:28;;;;;;;1.77;1.67;;;;;;;18.91;41.39;96302.78;5033260;28;20237;-83
2022/08/10 01:18:13;;;;;;;3.22;1.92;;;;;;;18.82;41.18;96302.06;5027419;28;20220;-84
2022/08/10 01:20:53;;;;;;;2.30;1.60;;;;;;;18.74;41.72;96304.78;5024045;28;20199;-83
2022/08/10 01:23:33;;;;;;;3.10;1.80;;;;;;;18.78;41.62;96305.22;5024948;28;20226;-83
2022/08/10 01:26:17;;;;;;;2.85;2.10;;;;;;;18.78;41.71;96300.78;5054260;28;20191;-84
2022/08/10 01:28:54;;;;;;;2.58;2.08;;;;;;;18.78;42.01;96305.22;5056421;28;20192;-84
2022/08/10 01:31:22;;;;;;;3.33;2.20;;;;;;;18.68;41.90;96306.28;5044549;28;20357;-84
2022/08/10 01:33:54;;;;;;;2.28;1.80;;;;;;;18.67;42.12;96302.03;5045708;28;20217;-84
2022/08/10 01:36:25;;;;;;;2.75;1.80;;;;;;;18.70;42.42;96298.22;5057286;28;20167;-83
2022/08/10 01:38:51;;;;;;;2.85;2.03;;;;;;;18.60;42.17;96303.72;5022318;28;20261;-82
2022/08/10 01:41:37;;;;;;;2.95;1.70;;;;;;;18.55;42.76;96306.06;5040966;28;20185;-82
2022/08/10 01:44:08;;;;;;;3.45;2.00;;;;;;;18.51;42.62;96309.22;5023479;28;20221;-82
2022/08/10 01:46:35;;;;;;;4.82;2.10;;;;;;;18.42;43.02;96307.66;5020789;28;20183;-82
2022/08/10 01:49:02;;;;;;;2.08;1.88;;;;;;;18.45;42.92;96310.75;5038783;28;20259;-82
2022/08/10 01:51:32;;;;;;;4.22;1.85;;;;;;;18.47;43.03;96297.44;5036592;28;20261;-82
2022/08/10 01:54:03;;;;;;;3.80;1.70;;;;;;;18.45;43.00;96296.78;5019424;28;20687;-83
2022/08/10 01:56:31;;;;;;;2.20;1.80;;;;;;;18.48;43.09;96299.06;5018102;28;20195;-82
2022/08/10 01:58:59;;;;;;;4.55;1.77;;;;;;;18.53;43.39;96304.59;5036222;28;20201;-82
2022/08/10 02:01:27;;;;;;;2.95;1.80;;;;;;;18.41;43.21;96296.34;5022248;28;20201;-83
2022/08/10 02:04:03;;;;;;;2.22;1.77;;;;;;;18.35;43.53;96300.47;5036395;28;20246;-83
2022/08/10 02:06:29;;;;;;;4.00;2.03;;;;;;;18.29;43.97;96305.66;5016239;28;20186;-82
2022/08/10 02:08:54;;;;;;;1.65;1.52;;;;;;;18.26;43.92;96298.91;5022907;28;20193;-83
2022/08/10 02:11:21;;;;;;;2.08;1.85;;;;;;;18.27;43.76;96294.47;5019074;28;20179;-83
2022/08/10 02:13:47;;;;;;;3.28;1.75;;;;;;;18.16;44.15;96287.00;5035414;28;20249;-83
2022/08/10 02:16:13;;;;;;;2.22;2.00;;;;;;;18.13;44.42;96298.72;5020750;28;20182;-82
2022/08/10 02:18:39;;;;;;;2.30;1.63;;;;;;;18.07;44.53;96296.78;5019254;28;20221;-83
2022/08/10 02:21:06;;;;;;;3.58;2.05;;;;;;;18.07;44.46;96299.41;5024199;28;20183;-83
2022/08/10 02:23:33;;;;;;;2.22;1.88;;;;;;;18.16;44.27;96303.59;5020816;28;20214;-83
2022/08/10 02:26:00;;;;;;;2.30;2.10;;;;;;;18.02;44.92;96302.56;5014230;28;20187;-83
2022/08/10 02:28:28;;;;;;;2.45;2.00;;;;;;;17.99;44.95;96304.72;5020903;28;20281;-83
2022/08/10 02:30:56;;;;;;;3.42;1.90;;;;;;;17.99;44.84;96305.53;5020513;28;20729;-83
2022/08/10 02:33:22;;;;;;;2.72;2.08;;;;;;;18.07;45.11;96304.66;5027454;28;20341;-83
2022/08/10 02:35:50;;;;;;;1.98;1.70;;;;;;;17.98;45.06;96300.44;5025389;28;20690;-83
2022/08/10 02:38:19;;;;;;;2.20;1.70;;;;;;;17.94;45.27;96296.56;5040404;28;20240;-83
2022/08/10 02:40:46;;;;;;;3.22;2.00;;;;;;;17.92;45.15;96299.34;5023966;28;20220;-83
2022/08/10 02:43:19;;;;;;;2.78;2.03;;;;;;;17.86;45.31;96300.06;5024386;28;20198;-83
2022/08/10 02:45:48;;;;;;;2.00;1.80;;;;;;;17.81;46.04;96303.19;5025272;28;20638;-82
2022/08/10 02:48:53;;;;;;;2.13;1.88;;;;;;;17.78;45.65;96300.09;5040619;28;20178;-82
2022/08/10 02:51:21;;;;;;;4.15;2.13;;;;;;;17.83;46.01;96306.44;5018260;28;20561;-82
2022/08/10 02:53:49;;;;;;;2.47;2.28;;;;;;;17.76;45.70;96309.97;5007583;28;20217;-84
2022/08/10 02:56:25;;;;;;;2.15;1.95;;;;;;;17.76;45.87;96305.53;5022826;28;20183;-83
2022/08/10 02:58:58;;;;;;;2.83;1.85;;;;;;;17.72;46.02;96308.66;5023910;28;20191;-83
2022/08/10 03:01:28;;;;;;;6.13;1.90;;;;;;;17.66;46.31;96299.63;5037913;28;20175;-83
2022/08/10 03:04:19;;;;;;;3.42;2.20;;;;;;;17.69;46.47;96298.47;5022869;28;20300;-83
2022/08/10 03:06:51;;;;;;;2.90;2.22;;;;;;;17.64;46.67;96298.16;5046120;28;20261;-83
2022/08/10 03:09:17;;;;;;;3.95;2.25;;;;;;;17.60;46.69;96305.59;5041610;28;20213;-83
2022/08/10 03:11:44;;;;;;;3.70;2.50;;;;;;;17.55;47.10;96295.59;5023204;28;20191;-83
2022/08/10 03:14:10;;;;;;;2.72;2.08;;;;;;;17.64;46.80;96296.38;5022895;28;20788;-83
2022/08/10 03:16:35;;;;;;;2.60;2.28;;;;;;;17.61;46.75;96299.34;5024207;28;20191;-82
2022/08/10 03:19:03;;;;;;;3.40;2.10;;;;;;;17.65;46.87;96290.13;5042143;28;20229;-82
2022/08/10 03:21:29;;;;;;;3.85;2.15;;;;;;;17.64;46.95;96296.38;5019306;28;20237;-82
2022/08/10 03:23:57;;;;;;;3.20;2.28;;;;;;;17.56;46.87;96299.84;5023617;28;20585;-82
2022/08/10 03:26:22;;;;;;;2.80;1.80;;;;;;;17.50;47.23;96302.38;5026173;28;20204;-82
2022/08/10 03:28:47;;;;;;;2.90;2.13;;;;;;;17.41;47.64;96303.41;5019378;28;20631;-82
2022/08/10 03:31:13;;;;;;;3.50;2.10;;;;;;;17.50;47.29;96308.44;5025504;28;20233;-82
2022/08/10 03:33:40;;;;;;;2.75;1.90;;;;;;;17.48;47.72;96307.75;5041182;28;20203;-82
2022/08/10 03:36:06;;;;;;;2.85;2.17;;;;;;;17.38;47.86;96307.16;5022142;28;20277;-83
2022/08/10 03:38:32;;;;;;;1.80;1.70;;;;;;;17.48;47.67;96305.13;5023697;28;20190;-83
2022/08/10 03:41:01;;;;;;;4.40;2.10;;;;;;;17.43;47.98;96304.03;5024974;28;20182;-82
2022/08/10 03:43:27;;;;;;;3.03;2.22;;;;;;;17.36;48.11;96309.16;5035567;28;20229;-82
2022/08/10 03:45:54;;;;;;;2.78;2.20;;;;;;;17.38;47.97;96306.34;5022791;28;20182;-83
2022/08/10 03:48:20;;;;;;;3.95;1.98;;;;;;;17.38;48.12;96309.78;5037921;28;20241;-84
2022/08/10 03:50:46;;;;;;;2.75;1.90;;;;;;;17.44;48.05;96316.16;5024801;28;20186;-83
2022/08/10 03:53:12;;;;;;;3.45;2.03;;;;;;;17.35;48.17;96312.75;5039891;28;20191;-82
2022/08/10 03:55:38;;;;;;;5.35;2.10;;;;;;;17.35;48.23;96320.63;5022011;28;20277;-82
2022/08/10 03:58:03;;;;;;;5.65;2.50;;;;;;;17.28;48.32;96317.06;5041783;28;20206;-82
2022/08/10 04:00:33;;;;;;;4.22;2.00;;;;;;;17.27;48.48;96316.25;5024886;28;20552;-82
2022/08/10 04:03:00;;;;;;;3.72;2.25;;;;;;;17.33;48.33;96320.00;5022186;28;20233;-83
2022/08/10 04:05:26;;;;;;;5.10;2.38;;;;;;;17.19;48.61;96313.66;5023905;28;20563;-82
2022/08/10 04:07:51;;;;;;;3.45;2.00;;;;;;;17.25;48.63;96312.16;5039817;28;20256;-82
2022/08/10 04:10:17;;;;;;;4.53;1.88;;;;;;;17.27;49.00;96313.63;5022064;28;20183;-83
2022/08/10 04:12:42;;;;;;;3.33;2.33;;;;;;;17.34;48.65;96319.00;5025009;28;20184;-83
2022/08/10 04:15:08;;;;;;;4.28;2.47;;;;;;;17.38;48.58;96315.03;5022649;28;20199;-83
2022/08/10 04:17:33;;;;;;;4.18;2.42;;;;;;;17.30;48.47;96322.13;5019810;28;20222;-83
2022/08/10 04:19:59;;;;;;;3.00;2.22;;;;;;;17.39;48.59;96323.72;5025400;28;20186;-83
2022/08/10 04:22:26;;;;;;;2.40;2.20;;;;;;;17.33;48.61;96322.63;5039350;28;20195;-83
2022/08/10 04:24:58;;;;;;;2.67;2.22;;;;;;;17.32;48.66;96325.44;5022966;28;20203;-83
2022/08/10 04:27:24;;;;;;;3.35;2.00;;;;;;;17.30;48.70;96325.56;5017127;28;20209;-83
2022/08/10 04:29:50;;;;;;;3.63;1.98;;;;;;;17.47;48.72;96327.13;5023560;28;20266;-83
2022/08/10 04:32:18;;;;;;;4.20;2.20;;;;;;;17.54;48.44;96332.53;5028268;28;20182;-83
2022/08/10 04:34:44;;;;;;;2.22;2.03;;;;;;;17.47;48.68;96328.94;5025942;28;20203;-83
2022/08/10 04:37:11;;;;;;;2.65;2.15;;;;;;;17.44;48.54;96332.75;5021375;28;20183;-83
2022/08/10 04:39:37;;;;;;;3.67;2.03;;;;;;;17.50;48.34;96331.25;5040383;28;20186;-82
2022/08/10 04:42:03;;;;;;;3.38;2.00;;;;;;;17.53;48.32;96330.91;5022053;28;20179;-83
2022/08/10 04:44:28;;;;;;;2.85;2.10;;;;;;;17.60;48.13;96325.78;5021749;28;20215;-83
2022/08/10 04:46:53;;;;;;;3.15;2.20;;;;;;;17.56;48.26;96328.72;5040578;28;20178;-84
2022/08/10 04:49:19;;;;;;;3.25;1.90;;;;;;;17.44;48.80;96331.94;5039191;28;20690;-84
2022/08/10 04:51:44;;;;;;;2.83;2.00;;;;;;;17.53;48.50;96331.72;5027070;28;20237;-84
2022/08/10 04:54:09;;;;;;;2.15;1.90;;;;;;;17.72;48.20;96327.06;5022116;28;20707;-84
2022/08/10 04:56:36;;;;;;;3.60;2.08;;;;;;;17.76;47.75;96323.91;5020718;28;20214;-84
2022/08/10 04:59:03;;;;;;;2.80;2.50;;;;;;;17.78;47.98;96332.44;5038550;28;20187;-84
2022/08/10 05:01:31;;;;;;;4.65;2.20;;;;;;;17.87;47.60;96329.75;5022403;28;20650;-83
2022/08/10 05:03:56;;;;;;;4.68;2.70;;;;;;;18.91;45.33;96329.94;5019726;28;20210;-84
2022/08/10 05:06:21;;;;;;;2.83;2.25;;;;;;;21.56;39.81;96319.31;5026834;28;20193;-84
2022/08/10 05:08:47;;;;;;;2.38;2.17;;;;;;;23.52;35.93;96333.03;5028455;28;20182;-84
2022/08/10 05:11:12;;;;;;;2.75;2.03;;;;;;;24.80;33.13;96334.56;5024904;28;20190;-84
2022/08/10 05:13:37;;;;;;;3.78;1.58;;;;;;;25.81;32.15;96336.00;5025100;28;20752;-85
2022/08/10 05:16:03;;;;;;;2.30;1.80;;;;;;;26.52;30.47;96342.44;5026721;28;20230;-85
2022/08/10 05:18:28;;;;;;;3.45;1.50;;;;;;;26.90;29.17;96338.53;5025104;28;20298;-85
2022/08/10 05:20:53;;;;;;;3.38;2.10;;;;;;;25.30;31.03;96350.47;5028282;28;20181;-83
2022/08/10 05:23:19;;;;;;;2.50;1.83;;;;;;;24.13;33.01;96338.69;5041634;28;20214;-83
2022/08/10 05:25:44;;;;;;;3.30;1.73;;;;;;;23.35;34.46;96340.63;5023666;28;20233;-82
2022/08/10 05:28:09;;;;;;;2.85;1.60;;;;;;;22.21;36.79;96339.03;5027454;28;20182;-83
2022/08/10 05:30:34;;;;;;;3.70;1.95;;;;;;;22.58;36.46;96339.47;5022137;28;20546;-84
2022/08/10 05:33:00;;;;;;;2.55;1.75;;;;;;;21.99;37.35;96340.16;5042556;28;20183;-84
2022/08/10 05:35:26;;;;;;;2.47;1.67;;;;;;;21.31;39.04;96339.28;5021860;28;20183;-84
2022/08/10 05:37:55;;;;;;;2.47;2.00;;;;;;;21.03;39.73;96334.03;5022589;28;20217;-83
2022/08/10 05:40:21;;;;;;;3.10;2.08;;;;;;;20.65;40.70;96344.91;5023977;28;20199;-84
2022/08/10 05:42:46;;;;;;;3.20;1.90;;;;;;;20.81;40.31;96346.44;5040767;28;20677;-84
2022/08/10 05:45:23;;;;;;;2.58;2.20;;;;;;;20.75;40.70;96344.56;5023850;28;20238;-82
2022/08/10 05:47:49;;;;;;;4.53;2.00;;;;;;;20.54;40.89;96345.44;5026309;28;20183;-82
2022/08/10 05:50:15;;;;;;;2.83;1.85;;;;;;;20.50;41.33;96339.72;5024592;28;20182;-84
2022/08/10 05:52:41;;;;;;;1.88;1.75;;;;;;;20.20;41.44;96346.91;5024531;28;20186;-83
2022/08/10 05:55:07;;;;;;;3.03;1.80;;;;;;;20.20;41.92;96351.38;5021685;28;20207;-84
2022/08/10 05:57:35;;;;;;;2.38;1.63;;;;;;;20.29;41.28;96347.59;5022560;28;20198;-83
2022/08/10 06:00:03;;;;;;;2.05;1.85;;;;;;;20.32;41.80;96349.88;5025619;28;20179;-83
2022/08/10 06:02:35;;;;;;;4.18;2.15;;;;;;;20.38;42.14;96354.38;5018319;28;20207;-84
2022/08/10 06:05:09;;;;;;;2.33;1.90;;;;;;;20.72;40.96;96350.25;5004163;28;20216;-83
2022/08/10 06:07:46;;;;;;;2.00;1.70;;;;;;;21.46;39.14;96356.63;5017857;28;20187;-84
2022/08/10 06:10:13;;;;;;;2.40;1.90;;;;;;;22.98;36.74;96358.84;5021419;28;20197;-84
2022/08/10 06:12:39;;;;;;;1.77;1.67;;;;;;;24.81;33.55;96356.63;5022029;28;20245;-84
2022/08/10 06:15:06;;;;;;;3.70;2.00;;;;;;;25.63;32.03;96362.59;5038297;28;20206;-82
2022/08/10 06:17:31;;;;;;;2.70;1.58;;;;;;;27.46;28.31;96366.47;5036536;28;20557;-82
2022/08/10 06:19:58;;;;;;;1.80;1.50;;;;;;;28.06;27.37;96366.13;5023246;28;20236;-82
2022/08/10 06:22:25;;;;;;;2.85;1.75;;;;;;;29.61;25.14;96364.72;5038694;28;20269;-83
2022/08/10 06:24:54;;;;;;;2.30;1.70;;;;;;;30.39;24.24;96373.38;5020616;28;20927;-83
2022/08/10 06:27:19;;;;;;;2.72;1.80;;;;;;;29.53;25.15;96363.28;5022559;28;20190;-83
2022/08/10 06:29:45;;;;;;;12.93;1.98;;;;;;;29.69;24.66;96371.50;5023406;28;20193;-84
2022/08/10 06:32:11;;;;;;;2.95;2.13;;;;;;;30.84;23.62;96377.59;5021344;28;20218;-83
2022/08/10 06:34:48;;;;;;;2.60;1.60;;;;;;;30.41;23.64;96373.97;5020743;28;20769;-83
2022/08/10 06:37:16;;;;;;;2.42;1.70;;;;;;;28.54;26.37;96367.56;5021884;28;20281;-84
2022/08/10 06:39:42;;;;;;;2.70;1.90;;;;;;;28.92;25.65;96367.69;5037990;28;20198;-82
2022/08/10 06:42:14;;;;;;;1.95;1.60;;;;;;;30.31;23.47;96369.31;5020282;28;20183;-83
2022/08/10 06:44:46;;;;;;;3.53;1.80;;;;;;;31.18;22.38;96372.72;5016973;28;20206;-84
2022/08/10 06:47:12;;;;;;;2.47;1.50;;;;;;;30.41;23.37;96372.09;5019816;28;20187;-84
2022/08/10 06:49:38;;;;;;;4.60;1.90;;;;;;;31.37;22.72;96363.25;5024703;28;20519;-84
2022/08/10 06:52:03;;;;;;;1.45;1.35;;;;;;;31.59;21.63;96371.13;5031746;28;20201;-84
2022/08/10 06:54:30;;;;;;;2.78;1.70;;;;;;;31.93;21.37;96362.72;5032611;28;20215;-83
2022/08/10 06:56:56;;;;;;;3.42;1.63;;;;;;;31.70;22.14;96369.31;5049696;28;20173;-83
2022/08/10 06:59:29;;;;;;;1.92;1.60;;;;;;;31.20;22.20;96368.75;5045938;28;20258;-83
2022/08/10 07:02:20;;;;;;;4.05;1.70;;;;;;;31.28;22.65;96364.81;5030745;28;20210;-84
2022/08/10 07:04:59;;;;;;;4.93;1.88;;;;;;;30.90;22.74;96372.00;5034208;28;20227;-83
2022/08/10 07:07:27;;;;;;;3.17;1.75;;;;;;;30.17;23.52;96373.44;5019436;28;20651;-83
2022/08/10 07:09:53;;;;;;;2.13;1.75;;;;;;;30.26;23.70;96368.44;5022907;28;20277;-83
2022/08/10 07:12:20;;;;;;;4.65;1.83;;;;;;;30.31;23.46;96365.81;5020315;28;20195;-84
2022/08/10 07:14:47;;;;;;;3.03;2.05;;;;;;;31.48;22.19;96372.16;5007828;28;20295;-84
2022/08/10 07:17:16;;;;;;;3.90;1.58;;;;;;;31.64;22.03;96378.44;5016435;28;20205;-83
2022/08/10 07:19:42;;;;;;;1.85;1.52;;;;;;;30.40;23.05;96377.69;5035117;28;20654;-83
2022/08/10 07:22:09;;;;;;;5.40;1.75;;;;;;;28.50;25.46;96373.38;5023518;28;20273;-84
2022/08/10 07:24:34;;;;;;;4.60;1.70;;;;;;;27.49;26.65;96368.69;5023214;28;20203;-84
2022/08/10 07:27:02;;;;;;;2.25;1.65;;;;;;;27.90;26.34;96367.69;5027395;28;20189;-83
2022/08/10 07:29:30;;;;;;;2.55;1.63;;;;;;;27.86;26.55;96364.69;5061224;28;20167;-83
2022/08/10 07:31:56;;;;;;;3.80;1.67;;;;;;;27.04;27.97;96355.97;5049515;28;20226;-83
2022/08/10 07:34:22;;;;;;;2.03;1.58;;;;;;;27.14;27.96;96360.72;5064123;28;20205;-82
2022/08/10 07:36:51;;;;;;;4.35;1.80;;;;;;;27.10;27.53;96360.34;5052031;28;20186;-82
2022/08/10 07:39:17;;;;;;;3.08;1.75;;;;;;;26.58;28.44;96362.78;5048749;28;20254;-82
2022/08/10 07:41:43;;;;;;;5.70;1.92;;;;;;;26.41;28.36;96356.50;5043697;28;20520;-82
2022/08/10 07:44:10;;;;;;;3.13;1.60;;;;;;;26.38;28.60;96356.97;5024334;28;20221;-82
2022/08/10 07:46:37;;;;;;;4.95;2.10;;;;;;;25.60;29.59;96358.53;5027420;28;20186;-82
2022/08/10 07:49:06;;;;;;;4.50;1.77;;;;;;;24.76;31.30;96357.28;5019273;28;20183;-82
2022/08/10 07:51:32;;;;;;;4.40;2.78;;;;;;;24.39;31.65;96353.69;5024895;28;20249;-82
2022/08/10 07:54:00;;;;;;;1.65;1.55;;;;;;;24.40;31.79;96365.09;5025600;28;20195;-82
2022/08/10 07:56:26;;;;;;;3.95;1.50;;;;;;;24.45;31.81;96358.09;5040551;28;20640;-82
2022/08/10 07:59:05;;;;;;;4.90;1.65;;;;;;;24.30;32.44;96360.25;5023602;28;20308;-83
2022/08/10 08:01:33;;;;;;;1.95;1.70;;;;;;;24.14;32.54;96358.09;5018929;28;20372;-82
2022/08/10 08:04:00;;;;;;;4.63;2.03;;;;;;;24.05;32.79;96354.88;5021623;28;20770;-83
2022/08/10 08:06:26;;;;;;;3.38;2.00;;;;;;;23.68;33.68;96362.59;5042294;28;20281;-82
2022/08/10 08:08:52;;;;;;;4.22;1.83;;;;;;;23.97;33.03;96365.72;5040797;28;20191;-83
2022/08/10 08:11:18;;;;;;;2.67;1.73;;;;;;;23.70;32.75;96360.53;5023341;28;20201;-83
2022/08/10 08:13:43;;;;;;;4.20;1.70;;;;;;;23.95;33.09;96357.97;5025696;28;20674;-83
2022/08/10 08:16:09;;;;;;;3.95;1.60;;;;;;;24.07;32.45;96365.25;5039808;28;20198;-82
2022/08/10 08:18:35;;;;;;;3.05;1.73;;;;;;;23.83;33.33;96359.66;5023787;28;20191;-82
2022/08/10 08:21:01;;;;;;;4.43;2.00;;;;;;;23.98;33.30;96368.16;5040754;28;20258;-83
2022/08/10 08:23:27;;;;;;;2.72;1.80;;;;;;;24.18;33.08;96359.28;5023454;28;20218;-83
2022/08/10 08:25:53;;;;;;;4.78;1.73;;;;;;;23.97;33.08;96371.03;5021484;28;20269;-83
2022/08/10 08:28:19;;;;;;;3.15;1.50;;;;;;;24.17;32.68;96368.28;5040465;28;20210;-83
2022/08/10 08:30:45;;;;;;;3.17;1.65;;;;;;;24.26;32.37;96370.44;5020906;28;20561;-83
2022/08/10 08:33:12;;;;;;;4.85;1.95;;;;;;;24.18;32.75;96364.59;5021295;28;20219;-83
2022/08/10 08:35:38;;;;;;;3.15;1.98;;;;;;;23.95;33.02;96373.91;5040136;28;20178;-83
2022/08/10 08:38:04;;;;;;;5.22;1.83;;;;;;;23.94;32.89;96371.44;5021978;28;20183;-83
2022/08/10 08:40:32;;;;;;;3.00;2.17;;;;;;;23.72;33.04;96370.94;5021780;28;20202;-83
2022/08/10 08:43:31;;;;;;;3.63;1.75;;;;;;;23.66;33.45;96374.41;5024385;28;20209;-82
2022/08/10 08:46:12;;;;;;;4.63;1.70;;;;;;;23.98;32.60;96368.16;5036376;28;20179;-82
2022/08/10 08:49:06;;;;;;;4.45;1.52;;;;;;;23.95;32.52;96357.97;5035899;28;20270;-83
2022/08/10 08:51:53;;;;;;;4.47;1.70;;;;;;;24.32;32.47;96363.53;5022244;28;20213;-83
2022/08/10 08:54:37;;;;;;;2.72;2.28;;;;;;;24.10;31.88;96364.81;5039879;28;20275;-84
2022/08/10 08:57:18;;;;;;;3.22;1.75;;;;;;;24.40;31.40;96371.22;5024590;28;20178;-84
2022/08/10 09:00:00;;;;;;;3.08;1.83;;;;;;;24.26;30.91;96364.34;5023041;28;20269;-83
2022/08/10 09:02:56;;;;;;;3.00;1.83;;;;;;;24.22;30.05;96355.19;5038014;28;20233;-84
2022/08/10 09:05:41;;;;;;;2.78;1.63;;;;;;;24.81;29.87;96361.94;5024416;28;20240;-83
2022/08/10 09:08:34;;;;;;;3.75;1.75;;;;;;;25.04;29.54;96353.38;5023976;28;20190;-83
2022/08/10 09:11:07;;;;;;;2.00;1.40;;;;;;;24.96;28.31;96364.25;5019821;28;20230;-83
2022/08/10 09:13:40;;;;;;;5.93;2.45;;;;;;;24.68;29.05;96352.22;5020840;28;20257;-82
2022/08/10 09:16:27;;;;;;;2.90;1.50;;;;;;;24.62;29.10;96357.59;5021726;28;20198;-82
2022/08/10 09:19:02;;;;;;;7.80;1.40;;;;;;;24.79;29.19;96359.50;5020627;28;20218;-83
2022/08/10 09:21:50;;;;;;;3.80;2.08;;;;;;;24.53;28.80;96349.06;5018798;28;20185;-83
2022/08/10 09:24:41;;;;;;;3.13;1.60;;;;;;;24.52;28.11;96369.50;5035050;28;20264;-84
2022/08/10 09:27:13;;;;;;;4.07;1.65;;;;;;;24.58;28.40;96358.03;5014714;28;20666;-83
2022/08/10 09:29:51;;;;;;;2.92;1.73;;;;;;;24.70;28.82;96355.47;5019483;28;20191;-83
2022/08/10 09:32:28;;;;;;;8.27;1.85;;;;;;;24.42;28.26;96358.56;5035629;28;20601;-83
2022/08/10 09:35:06;;;;;;;3.40;1.75;;;;;;;24.95;27.98;96355.47;5021903;28;20206;-84
2022/08/10 09:37:41;;;;;;;6.28;1.85;;;;;;;25.35;27.03;96352.44;5015085;28;20186;-83
2022/08/10 09:40:18;;;;;;;6.00;1.60;;;;;;;25.13;27.38;96350.22;5035547;28;20698;-83
2022/08/10 09:43:03;;;;;;;3.05;1.70;;;;;;;25.04;27.95;96350.72;5037749;28;20210;-83
2022/08/10 09:46:05;;;;;;;5.25;1.58;;;;;;;25.41;27.63;96344.41;5037042;28;20194;-83
2022/08/10 09:48:56;;;;;;;1.98;1.50;;;;;;;25.88;27.69;96341.22;5010600;28;20191;-84
2022/08/10 09:51:44;;;;;;;2.92;1.50;;;;;;;25.66;27.10;96354.16;5034332;28;20533;-83
2022/08/10 09:54:34;;;;;;;2.85;1.70;;;;;;;25.75;26.18;96352.03;5024003;28;20215;-83
2022/08/10 09:57:21;;;;;;;2.90;1.80;;;;;;;25.71;26.98;96341.06;5019074;28;20183;-83
2022/08/10 10:00:11;;;;;;;2.65;1.83;;;;;;;25.30;27.41;96358.44;5023246;28;20598;-84
2022/08/10 10:02:45;;;;;;;3.78;1.70;;;;;;;25.34;26.29;96370.25;5018964;28;20687;-83
2022/08/10 10:05:25;;;;;;;1.75;1.60;;;;;;;25.32;27.53;96342.28;5004829;28;20208;-84
2022/08/10 10:08:06;;;;;;;2.10;1.42;;;;;;;25.61;26.15;96341.53;5021744;28;20269;-84
2022/08/10 10:10:38;;;;;;;2.40;1.60;;;;;;;25.49;25.31;96342.50;5035704;28;20183;-83
2022/08/10 10:13:08;;;;;;;3.28;1.40;;;;;;;25.58;25.40;96327.88;5020951;28;20187;-83
2022/08/10 10:15:39;;;;;;;1.67;1.55;;;;;;;25.45;25.93;96334.16;5021817;28;20209;-84
2022/08/10 10:18:19;;;;;;;2.63;1.95;;;;;;;25.34;25.67;96342.84;5024984;28;20193;-84
2022/08/10 10:20:54;;;;;;;3.08;1.70;;;;;;;25.68;25.20;96331.63;5039787;28;20186;-84
2022/08/10 10:23:27;;;;;;;4.38;1.77;;;;;;;25.79;24.79;96323.94;5019676;28;20236;-83
2022/08/10 10:26:20;;;;;;;2.42;1.63;;;;;;;26.05;24.84;96338.75;5022379;28;20726;-83
2022/08/10 10:29:39;;;;;;;2.10;1.40;;;;;;;26.46;25.14;96335.34;5018921;28;20187;-83
2022/08/10 10:32:17;;;;;;;2.42;1.35;;;;;;;26.61;24.47;96343.72;5002079;28;20214;-84
2022/08/10 10:35:18;;;;;;;3.20;1.70;;;;;;;26.19;23.64;96332.22;5014265;28;20221;-84
2022/08/10 10:37:45;;;;;;;2.75;1.60;;;;;;;25.92;24.38;96326.47;5001632;28;20539;-84
2022/08/10 10:40:11;;;;;;;1.92;1.40;;;;;;;26.50;24.22;96325.84;4986067;28;20636;-84
2022/08/10 10:43:00;;;;;;;4.22;1.80;;;;;;;26.51;23.44;96316.84;4983583;28;20256;-84
2022/08/10 10:45:35;;;;;;;1.85;1.30;;;;;;;26.35;23.74;96325.44;5001979;28;20267;-84
2022/08/10 10:48:14;;;;;;;2.38;1.33;;;;;;;26.11;23.68;96320.03;5001074;28;20191;-84
2022/08/10 10:50:57;;;;;;;3.53;1.23;;;;;;;26.09;23.66;96319.47;4984507;28;20192;-84
2022/08/10 10:53:23;;;;;;;3.42;1.60;;;;;;;26.09;23.85;96318.66;4983246;28;20775;-84
2022/08/10 10:55:55;;;;;;;2.58;1.90;;;;;;;26.57;23.24;96302.56;5003007;28;20194;-84
2022/08/10 10:58:26;;;;;;;6.05;1.58;;;;;;;26.73;22.92;96307.22;4986890;28;20245;-84
2022/08/10 11:01:26;;;;;;;2.60;1.50;;;;;;;26.52;22.66;96321.13;4988376;28;20226;-84
2022/08/10 11:04:01;;;;;;;2.60;1.65;;;;;;;26.62;23.38;96307.22;4971125;28;20231;-84
2022/08/10 11:06:45;;;;;;;1.33;1.23;;;;;;;26.41;23.33;96300.59;5003627;28;20279;-84
2022/08/10 11:09:17;;;;;;;1.80;1.17;;;;;;;26.44;22.68;96300.94;5004695;28;20191;-84
2022/08/10 11:11:44;;;;;;;4.18;1.27;;;;;;;25.77;23.35;96302.09;4986727;28;20192;-84
2022/08/10 11:14:28;;;;;;;3.05;1.40;;;;;;;26.27;22.72;96314.06;5018626;28;20247;-83
2022/08/10 11:17:06;;;;;;;3.53;1.63;;;;;;;25.85;23.76;96304.44;5023103;28;20210;-83
2022/08/10 11:19:54;;;;;;;4.68;1.55;;;;;;;25.55;24.25;96299.06;5037473;28;20206;-83
2022/08/10 11:22:31;;;;;;;2.58;1.50;;;;;;;25.93;24.23;96307.59;5023826;28;20199;-84
2022/08/10 11:25:15;;;;;;;1.75;1.48;;;;;;;26.41;24.27;96297.91;5019380;28;20213;-84
2022/08/10 11:28:04;;;;;;;4.07;1.75;;;;;;;26.67;23.72;96313.47;5023795;28;20269;-84
2022/08/10 11:30:43;;;;;;;3.78;1.67;;;;;;;26.65;23.27;96304.91;5022066;28;20179;-84
2022/08/10 11:33:15;;;;;;;2.38;1.33;;;;;;;26.57;23.80;96307.91;5023000;28;20179;-84
2022/08/10 11:35:46;;;;;;;2.67;1.42;;;;;;;26.86;23.57;96310.69;5023851;28;20183;-84
2022/08/10 11:38:11;;;;;;;2.70;1.58;;;;;;;27.07;23.00;96304.84;5041519;28;20190;-85
2022/08/10 11:41:01;;;;;;;1.67;1.58;;;;;;;27.26;23.28;96294.84;5025559;28;20241;-84
2022/08/10 11:43:28;;;;;;;4.28;1.63;;;;;;;27.32;23.54;96310.72;5024654;28;20218;-85
2022/08/10 11:46:07;;;;;;;6.30;1.70;;;;;;;27.19;24.12;96292.28;5022892;28;20248;-83
2022/08/10 11:48:37;;;;;;;3.03;1.63;;;;;;;27.28;23.80;96296.22;5027248;28;20228;-83
2022/08/10 11:51:09;;;;;;;2.08;1.52;;;;;;;27.28;23.37;96292.75;5035535;28;20175;-84
2022/08/10 11:53:56;;;;;;;1.60;1.48;;;;;;;27.37;23.37;96286.81;5025759;28;20238;-84